Hovedside
METAR-TAF:

METAR-TAF

Lufthavner :

Enontekiö lufthavn

Enontekis, Finland

breddegrad: 68-21-52N, lengdegrad: 023-25-39E, høyde over havet: 308 m

Gjeldene værobservasjon

Denne rapporten ble laget for 14 minutter siden, klokken 01:20 UTC
Vind 7 kt fra Nord
Temperatur -7°C
Luftfuktighet 93%
Trykk 1015 hPa
Sikt 10 km eller mer
ingen skyer under 1500 m og ingen bygeskyer

METAR: EFET 110120Z AUTO 35007KT CAVOK M07/M08 Q1015

Tid: 03:34 (01:34 UTC)

Varsel

Denne rapporten ble laget for 13 timer og 56 minutter siden, klokken 11:38 UTC
Varsel gyldig fra 10. klokken 12 UTC til 10. klokken 15 UTC
Vind 6 kt fra Nord
Sikt 10 km eller mer
Brutte skyer i en høyde av 3000 ft
Midlertidig
fra 10. klokken 12 UTC til 10. klokken 15 UTC
Sikt: 4000 m
Brutte skyer i en høyde av 800 ft
lett snø

TAF: EFET 101138Z 1012/1015 01006KT 9999 BKN030 TEMPO 1012/1015 4000 -SN BKN008

Værobservasjoner og værvarsel for over 4000 flyplasser (METAR- og TAF-rapporter).

Tilgjengelige stasjoner er representert av de røde og gule prikkene på kartet.

Hold musepekeren over prikken for å se navnet på stasjonen.

Klikk så for å se værobservasjoner og -varsler.

For å forandre kartet kan du klikke på den grønne knappen med svart kryss for å zoome inn, på den grønne knappen med strek for å zoome ut, eller på de grønne pilene for å se tilstøtende kart.


METAR-TAF: